sensor_id;sensor_type;location;lat;lon;timestamp;temperature;humidity
2024;DHT22;1016;48.770;9.154;2023-04-07T00:01:28;10.00;99.90
2024;DHT22;1016;48.770;9.154;2023-04-07T00:03:53;10.00;99.90
2024;DHT22;1016;48.770;9.154;2023-04-07T00:06:19;10.00;99.90
2024;DHT22;1016;48.770;9.154;2023-04-07T00:08:45;10.00;99.90
2024;DHT22;1016;48.770;9.154;2023-04-07T00:11:10;10.00;99.90
2024;DHT22;1016;48.770;9.154;2023-04-07T00:13:36;10.00;99.90
2024;DHT22;1016;48.770;9.154;2023-04-07T00:16:01;10.00;99.90
2024;DHT22;1016;48.770;9.154;2023-04-07T00:18:27;10.00;99.90
2024;DHT22;1016;48.770;9.154;2023-04-07T00:20:53;10.00;99.90
2024;DHT22;1016;48.770;9.154;2023-04-07T00:23:18;10.00;99.90
2024;DHT22;1016;48.770;9.154;2023-04-07T00:25:44;9.90;99.90
2024;DHT22;1016;48.770;9.154;2023-04-07T00:28:12;9.90;99.90
2024;DHT22;1016;48.770;9.154;2023-04-07T00:30:37;9.90;99.90
2024;DHT22;1016;48.770;9.154;2023-04-07T00:33:03;9.90;99.90
2024;DHT22;1016;48.770;9.154;2023-04-07T00:35:28;9.90;99.90
2024;DHT22;1016;48.770;9.154;2023-04-07T00:37:53;9.90;99.90
2024;DHT22;1016;48.770;9.154;2023-04-07T00:40:19;9.90;99.90
2024;DHT22;1016;48.770;9.154;2023-04-07T00:42:45;9.90;99.90
2024;DHT22;1016;48.770;9.154;2023-04-07T00:45:10;9.90;99.90
2024;DHT22;1016;48.770;9.154;2023-04-07T00:47:37;10.00;99.90
2024;DHT22;1016;48.770;9.154;2023-04-07T00:50:03;9.90;99.90
2024;DHT22;1016;48.770;9.154;2023-04-07T00:52:31;9.90;99.90
2024;DHT22;1016;48.770;9.154;2023-04-07T00:54:58;9.90;99.90
2024;DHT22;1016;48.770;9.154;2023-04-07T00:57:24;9.90;99.90
2024;DHT22;1016;48.770;9.154;2023-04-07T00:59:51;10.00;99.90
2024;DHT22;1016;48.770;9.154;2023-04-07T01:05:15;10.00;99.90
2024;DHT22;1016;48.770;9.154;2023-04-07T01:07:57;9.90;99.90
2024;DHT22;1016;48.770;9.154;2023-04-07T01:13:35;9.90;99.90
2024;DHT22;1016;48.770;9.154;2023-04-07T01:16:04;9.90;99.90
2024;DHT22;1016;48.770;9.154;2023-04-07T01:18:32;9.90;99.90
2024;DHT22;1016;48.770;9.154;2023-04-07T01:21:06;9.90;99.90
2024;DHT22;1016;48.770;9.154;2023-04-07T01:26:29;9.80;99.90
2024;DHT22;1016;48.770;9.154;2023-04-07T01:31:49;9.80;99.90
2024;DHT22;1016;48.770;9.154;2023-04-07T01:34:16;9.80;99.90
2024;DHT22;1016;48.770;9.154;2023-04-07T01:36:43;9.80;99.90
2024;DHT22;1016;48.770;9.154;2023-04-07T01:39:10;9.80;99.90
2024;DHT22;1016;48.770;9.154;2023-04-07T01:41:37;9.80;99.90
2024;DHT22;1016;48.770;9.154;2023-04-07T01:44:05;9.80;99.90
2024;DHT22;1016;48.770;9.154;2023-04-07T01:46:33;9.80;99.90
2024;DHT22;1016;48.770;9.154;2023-04-07T01:48:58;9.80;99.90
2024;DHT22;1016;48.770;9.154;2023-04-07T01:51:25;9.90;99.90
2024;DHT22;1016;48.770;9.154;2023-04-07T01:53:52;9.70;99.90
2024;DHT22;1016;48.770;9.154;2023-04-07T01:56:17;9.70;99.90
2024;DHT22;1016;48.770;9.154;2023-04-07T01:58:43;9.70;99.90
2024;DHT22;1016;48.770;9.154;2023-04-07T02:01:08;9.70;99.90
2024;DHT22;1016;48.770;9.154;2023-04-07T02:04:48;9.80;99.90
2024;DHT22;1016;48.770;9.154;2023-04-07T02:06:45;9.80;99.90
2024;DHT22;1016;48.770;9.154;2023-04-07T02:09:14;9.70;99.90
2024;DHT22;1016;48.770;9.154;2023-04-07T02:11:41;9.80;99.90
2024;DHT22;1016;48.770;9.154;2023-04-07T02:14:08;9.70;99.90
2024;DHT22;1016;48.770;9.154;2023-04-07T02:16:34;9.80;99.90
2024;DHT22;1016;48.770;9.154;2023-04-07T02:19:01;9.70;99.90
2024;DHT22;1016;48.770;9.154;2023-04-07T02:21:28;9.80;99.90
2024;DHT22;1016;48.770;9.154;2023-04-07T02:23:55;9.80;99.90
2024;DHT22;1016;48.770;9.154;2023-04-07T02:26:20;9.80;99.90
2024;DHT22;1016;48.770;9.154;2023-04-07T02:28:46;9.80;99.90
2024;DHT22;1016;48.770;9.154;2023-04-07T02:31:11;9.80;99.90
2024;DHT22;1016;48.770;9.154;2023-04-07T02:33:38;9.70;99.90
2024;DHT22;1016;48.770;9.154;2023-04-07T02:36:03;9.70;99.90
2024;DHT22;1016;48.770;9.154;2023-04-07T02:38:30;9.70;99.90
2024;DHT22;1016;48.770;9.154;2023-04-07T02:40:55;9.70;99.90
2024;DHT22;1016;48.770;9.154;2023-04-07T02:43:22;9.70;99.90
2024;DHT22;1016;48.770;9.154;2023-04-07T02:45:49;9.70;99.90
2024;DHT22;1016;48.770;9.154;2023-04-07T02:48:15;9.70;99.90
2024;DHT22;1016;48.770;9.154;2023-04-07T02:50:40;9.70;99.90
2024;DHT22;1016;48.770;9.154;2023-04-07T02:53:06;9.70;99.90
2024;DHT22;1016;48.770;9.154;2023-04-07T02:55:32;9.70;99.90
2024;DHT22;1016;48.770;9.154;2023-04-07T02:57:57;9.70;99.90
2024;DHT22;1016;48.770;9.154;2023-04-07T03:00:24;9.80;99.90
2024;DHT22;1016;48.770;9.154;2023-04-07T03:02:49;9.80;99.90
2024;DHT22;1016;48.770;9.154;2023-04-07T03:05:15;9.80;99.90
2024;DHT22;1016;48.770;9.154;2023-04-07T03:07:40;9.80;99.90
2024;DHT22;1016;48.770;9.154;2023-04-07T03:10:06;9.80;99.90
2024;DHT22;1016;48.770;9.154;2023-04-07T03:12:32;9.80;99.90
2024;DHT22;1016;48.770;9.154;2023-04-07T03:14:57;9.80;99.90
2024;DHT22;1016;48.770;9.154;2023-04-07T03:17:23;9.80;99.90
2024;DHT22;1016;48.770;9.154;2023-04-07T03:19:48;9.80;99.90
2024;DHT22;1016;48.770;9.154;2023-04-07T03:22:16;9.80;99.90
2024;DHT22;1016;48.770;9.154;2023-04-07T03:24:41;9.80;99.90
2024;DHT22;1016;48.770;9.154;2023-04-07T03:27:07;9.90;99.90
2024;DHT22;1016;48.770;9.154;2023-04-07T03:29:33;9.80;99.90
2024;DHT22;1016;48.770;9.154;2023-04-07T03:31:58;9.80;99.90
2024;DHT22;1016;48.770;9.154;2023-04-07T03:34:24;9.90;99.90
2024;DHT22;1016;48.770;9.154;2023-04-07T03:36:49;9.80;99.90
2024;DHT22;1016;48.770;9.154;2023-04-07T03:39:15;9.80;99.90
2024;DHT22;1016;48.770;9.154;2023-04-07T03:41:40;9.80;99.90
2024;DHT22;1016;48.770;9.154;2023-04-07T03:44:06;9.80;99.90
2024;DHT22;1016;48.770;9.154;2023-04-07T03:46:31;9.80;99.90
2024;DHT22;1016;48.770;9.154;2023-04-07T03:48:57;9.70;99.90
2024;DHT22;1016;48.770;9.154;2023-04-07T03:51:22;9.80;99.90
2024;DHT22;1016;48.770;9.154;2023-04-07T03:53:48;9.90;99.90
2024;DHT22;1016;48.770;9.154;2023-04-07T03:56:13;9.70;99.90
2024;DHT22;1016;48.770;9.154;2023-04-07T03:58:39;9.70;99.90
2024;DHT22;1016;48.770;9.154;2023-04-07T04:01:07;9.70;99.90
2024;DHT22;1016;48.770;9.154;2023-04-07T04:03:32;9.80;99.90
2024;DHT22;1016;48.770;9.154;2023-04-07T04:05:58;9.70;99.90
2024;DHT22;1016;48.770;9.154;2023-04-07T04:08:23;9.70;99.90
2024;DHT22;1016;48.770;9.154;2023-04-07T04:10:49;9.70;99.90
2024;DHT22;1016;48.770;9.154;2023-04-07T04:13:15;9.70;99.90
2024;DHT22;1016;48.770;9.154;2023-04-07T04:15:41;9.80;99.90
2024;DHT22;1016;48.770;9.154;2023-04-07T04:18:06;9.70;99.90
2024;DHT22;1016;48.770;9.154;2023-04-07T04:20:33;9.70;99.90
2024;DHT22;1016;48.770;9.154;2023-04-07T04:22:58;9.70;99.90
2024;DHT22;1016;48.770;9.154;2023-04-07T04:25:23;9.70;99.90
2024;DHT22;1016;48.770;9.154;2023-04-07T04:27:49;9.70;99.90
2024;DHT22;1016;48.770;9.154;2023-04-07T04:30:16;9.70;99.90
2024;DHT22;1016;48.770;9.154;2023-04-07T04:32:41;9.70;99.90
2024;DHT22;1016;48.770;9.154;2023-04-07T04:35:07;9.70;99.90
2024;DHT22;1016;48.770;9.154;2023-04-07T04:37:33;9.70;99.90
2024;DHT22;1016;48.770;9.154;2023-04-07T04:39:58;9.70;99.90
2024;DHT22;1016;48.770;9.154;2023-04-07T04:42:24;9.80;99.90
2024;DHT22;1016;48.770;9.154;2023-04-07T04:44:52;9.80;99.90
2024;DHT22;1016;48.770;9.154;2023-04-07T04:47:17;9.80;99.90
2024;DHT22;1016;48.770;9.154;2023-04-07T04:49:43;9.80;99.90
2024;DHT22;1016;48.770;9.154;2023-04-07T04:52:09;9.80;99.90
2024;DHT22;1016;48.770;9.154;2023-04-07T04:54:34;9.80;99.90
2024;DHT22;1016;48.770;9.154;2023-04-07T04:57:00;9.80;99.90
2024;DHT22;1016;48.770;9.154;2023-04-07T04:59:25;9.90;99.90
2024;DHT22;1016;48.770;9.154;2023-04-07T05:01:51;9.80;99.90
2024;DHT22;1016;48.770;9.154;2023-04-07T05:04:16;10.00;99.90
2024;DHT22;1016;48.770;9.154;2023-04-07T05:06:43;9.80;99.90
2024;DHT22;1016;48.770;9.154;2023-04-07T05:09:08;9.80;99.90
2024;DHT22;1016;48.770;9.154;2023-04-07T05:11:34;9.80;99.90
2024;DHT22;1016;48.770;9.154;2023-04-07T05:13:59;9.80;99.90
2024;DHT22;1016;48.770;9.154;2023-04-07T05:16:25;9.80;99.90
2024;DHT22;1016;48.770;9.154;2023-04-07T05:18:51;9.80;99.90
2024;DHT22;1016;48.770;9.154;2023-04-07T05:21:16;9.80;99.90
2024;DHT22;1016;48.770;9.154;2023-04-07T05:23:44;9.80;99.90
2024;DHT22;1016;48.770;9.154;2023-04-07T05:26:10;9.80;99.90
2024;DHT22;1016;48.770;9.154;2023-04-07T05:28:35;9.80;99.90
2024;DHT22;1016;48.770;9.154;2023-04-07T05:31:01;9.70;99.90
2024;DHT22;1016;48.770;9.154;2023-04-07T05:33:27;9.70;99.90
2024;DHT22;1016;48.770;9.154;2023-04-07T05:35:52;9.70;99.90
2024;DHT22;1016;48.770;9.154;2023-04-07T05:38:18;9.70;99.90
2024;DHT22;1016;48.770;9.154;2023-04-07T05:40:43;9.80;99.90
2024;DHT22;1016;48.770;9.154;2023-04-07T05:43:09;9.80;99.90
2024;DHT22;1016;48.770;9.154;2023-04-07T05:45:34;9.80;99.90
2024;DHT22;1016;48.770;9.154;2023-04-07T05:48:00;9.80;99.90
2024;DHT22;1016;48.770;9.154;2023-04-07T05:50:25;9.70;99.90
2024;DHT22;1016;48.770;9.154;2023-04-07T05:52:51;9.80;99.90
2024;DHT22;1016;48.770;9.154;2023-04-07T05:55:17;9.80;99.90
2024;DHT22;1016;48.770;9.154;2023-04-07T05:57:42;9.80;99.90
2024;DHT22;1016;48.770;9.154;2023-04-07T06:00:08;9.80;99.90
2024;DHT22;1016;48.770;9.154;2023-04-07T06:02:34;9.80;99.90
2024;DHT22;1016;48.770;9.154;2023-04-07T06:05:00;9.90;99.90
2024;DHT22;1016;48.770;9.154;2023-04-07T06:07:25;9.90;99.90
2024;DHT22;1016;48.770;9.154;2023-04-07T06:09:51;9.80;99.90
2024;DHT22;1016;48.770;9.154;2023-04-07T06:12:16;9.90;99.90
2024;DHT22;1016;48.770;9.154;2023-04-07T06:14:42;9.80;99.90
2024;DHT22;1016;48.770;9.154;2023-04-07T06:17:07;9.90;99.90
2024;DHT22;1016;48.770;9.154;2023-04-07T06:19:33;9.90;99.90
2024;DHT22;1016;48.770;9.154;2023-04-07T06:21:58;10.00;99.90
2024;DHT22;1016;48.770;9.154;2023-04-07T06:24:24;10.00;99.90
2024;DHT22;1016;48.770;9.154;2023-04-07T06:26:51;10.00;99.90
2024;DHT22;1016;48.770;9.154;2023-04-07T06:29:17;10.10;99.90
2024;DHT22;1016;48.770;9.154;2023-04-07T06:31:42;10.10;99.90
2024;DHT22;1016;48.770;9.154;2023-04-07T06:34:08;10.10;99.90
2024;DHT22;1016;48.770;9.154;2023-04-07T06:36:33;10.10;99.90
2024;DHT22;1016;48.770;9.154;2023-04-07T06:38:59;10.10;99.90
2024;DHT22;1016;48.770;9.154;2023-04-07T06:41:25;10.30;99.90
2024;DHT22;1016;48.770;9.154;2023-04-07T06:43:50;10.20;99.90
2024;DHT22;1016;48.770;9.154;2023-04-07T06:46:17;10.30;99.90
2024;DHT22;1016;48.770;9.154;2023-04-07T06:48:42;10.30;99.90
2024;DHT22;1016;48.770;9.154;2023-04-07T06:51:08;10.30;99.90
2024;DHT22;1016;48.770;9.154;2023-04-07T06:53:33;10.30;99.90
2024;DHT22;1016;48.770;9.154;2023-04-07T06:56:07;10.30;99.90
2024;DHT22;1016;48.770;9.154;2023-04-07T06:58:33;10.30;99.90
2024;DHT22;1016;48.770;9.154;2023-04-07T07:00:59;10.50;99.90
2024;DHT22;1016;48.770;9.154;2023-04-07T07:03:25;10.30;99.90
2024;DHT22;1016;48.770;9.154;2023-04-07T07:05:53;10.30;99.90
2024;DHT22;1016;48.770;9.154;2023-04-07T07:08:18;10.30;99.90
2024;DHT22;1016;48.770;9.154;2023-04-07T07:10:44;10.30;99.90
2024;DHT22;1016;48.770;9.154;2023-04-07T07:13:09;10.40;99.90
2024;DHT22;1016;48.770;9.154;2023-04-07T07:15:35;10.40;99.90
2024;DHT22;1016;48.770;9.154;2023-04-07T07:18:00;10.40;99.90
2024;DHT22;1016;48.770;9.154;2023-04-07T07:20:26;10.40;99.90
2024;DHT22;1016;48.770;9.154;2023-04-07T07:22:52;10.30;99.90
2024;DHT22;1016;48.770;9.154;2023-04-07T07:25:17;10.30;99.90
2024;DHT22;1016;48.770;9.154;2023-04-07T07:27:43;10.40;99.90
2024;DHT22;1016;48.770;9.154;2023-04-07T07:30:09;10.50;99.90
2024;DHT22;1016;48.770;9.154;2023-04-07T07:32:35;10.40;99.90
2024;DHT22;1016;48.770;9.154;2023-04-07T07:35:00;10.40;99.90
2024;DHT22;1016;48.770;9.154;2023-04-07T07:37:26;10.30;99.90
2024;DHT22;1016;48.770;9.154;2023-04-07T07:39:52;10.40;99.90
2024;DHT22;1016;48.770;9.154;2023-04-07T07:42:18;10.40;99.90
2024;DHT22;1016;48.770;9.154;2023-04-07T07:44:43;10.40;99.90
2024;DHT22;1016;48.770;9.154;2023-04-07T07:47:09;10.40;99.90
2024;DHT22;1016;48.770;9.154;2023-04-07T07:49:34;10.40;99.90
2024;DHT22;1016;48.770;9.154;2023-04-07T07:52:00;10.40;99.90
2024;DHT22;1016;48.770;9.154;2023-04-07T07:54:26;10.50;99.90
2024;DHT22;1016;48.770;9.154;2023-04-07T07:56:52;10.50;99.90
2024;DHT22;1016;48.770;9.154;2023-04-07T07:59:17;10.50;99.90
2024;DHT22;1016;48.770;9.154;2023-04-07T08:01:43;10.50;99.90
2024;DHT22;1016;48.770;9.154;2023-04-07T08:04:08;10.60;99.90
2024;DHT22;1016;48.770;9.154;2023-04-07T08:06:34;10.60;99.90
2024;DHT22;1016;48.770;9.154;2023-04-07T08:09:00;10.60;99.90
2024;DHT22;1016;48.770;9.154;2023-04-07T08:11:26;10.70;99.90
2024;DHT22;1016;48.770;9.154;2023-04-07T08:13:51;10.80;99.90
2024;DHT22;1016;48.770;9.154;2023-04-07T08:16:18;10.80;99.90
2024;DHT22;1016;48.770;9.154;2023-04-07T08:18:44;10.90;99.90
2024;DHT22;1016;48.770;9.154;2023-04-07T08:21:09;10.90;99.90
2024;DHT22;1016;48.770;9.154;2023-04-07T08:23:35;10.90;99.90
2024;DHT22;1016;48.770;9.154;2023-04-07T08:26:00;11.00;99.90
2024;DHT22;1016;48.770;9.154;2023-04-07T08:28:26;11.10;99.90
2024;DHT22;1016;48.770;9.154;2023-04-07T08:30:51;11.20;99.90
2024;DHT22;1016;48.770;9.154;2023-04-07T08:33:17;11.30;99.90
2024;DHT22;1016;48.770;9.154;2023-04-07T08:35:42;11.40;99.90
2024;DHT22;1016;48.770;9.154;2023-04-07T08:38:08;11.50;99.90
2024;DHT22;1016;48.770;9.154;2023-04-07T08:40:34;11.60;99.90
2024;DHT22;1016;48.770;9.154;2023-04-07T08:43:01;11.60;99.90
2024;DHT22;1016;48.770;9.154;2023-04-07T08:45:27;11.70;99.90
2024;DHT22;1016;48.770;9.154;2023-04-07T08:47:54;11.80;99.90
2024;DHT22;1016;48.770;9.154;2023-04-07T08:50:25;11.80;99.90
2024;DHT22;1016;48.770;9.154;2023-04-07T08:52:56;11.80;99.90
2024;DHT22;1016;48.770;9.154;2023-04-07T08:55:23;11.90;99.90
2024;DHT22;1016;48.770;9.154;2023-04-07T08:57:50;11.90;99.90
2024;DHT22;1016;48.770;9.154;2023-04-07T09:00:17;11.90;99.90
2024;DHT22;1016;48.770;9.154;2023-04-07T09:02:43;12.00;99.90
2024;DHT22;1016;48.770;9.154;2023-04-07T09:05:13;12.00;99.90
2024;DHT22;1016;48.770;9.154;2023-04-07T09:07:39;12.00;99.90
2024;DHT22;1016;48.770;9.154;2023-04-07T09:10:05;12.10;99.90
2024;DHT22;1016;48.770;9.154;2023-04-07T09:12:32;12.00;99.90
2024;DHT22;1016;48.770;9.154;2023-04-07T09:14:59;11.90;99.90
2024;DHT22;1016;48.770;9.154;2023-04-07T09:17:28;12.00;99.90
2024;DHT22;1016;48.770;9.154;2023-04-07T09:19:58;12.10;99.90
2024;DHT22;1016;48.770;9.154;2023-04-07T09:22:38;12.20;99.90
2024;DHT22;1016;48.770;9.154;2023-04-07T09:25:18;12.30;99.90
2024;DHT22;1016;48.770;9.154;2023-04-07T09:28:01;12.40;99.90
2024;DHT22;1016;48.770;9.154;2023-04-07T09:30:28;12.50;99.90
2024;DHT22;1016;48.770;9.154;2023-04-07T09:32:54;12.50;99.90
2024;DHT22;1016;48.770;9.154;2023-04-07T09:35:20;12.60;99.90
2024;DHT22;1016;48.770;9.154;2023-04-07T09:38:09;12.70;99.90
2024;DHT22;1016;48.770;9.154;2023-04-07T09:40:35;12.80;99.90
2024;DHT22;1016;48.770;9.154;2023-04-07T09:43:03;12.90;99.90
2024;DHT22;1016;48.770;9.154;2023-04-07T09:45:29;12.90;99.90
2024;DHT22;1016;48.770;9.154;2023-04-07T09:47:56;12.90;99.90
2024;DHT22;1016;48.770;9.154;2023-04-07T09:50:37;12.90;99.90
2024;DHT22;1016;48.770;9.154;2023-04-07T09:53:03;12.90;99.90
2024;DHT22;1016;48.770;9.154;2023-04-07T09:55:29;13.00;99.90
2024;DHT22;1016;48.770;9.154;2023-04-07T09:57:55;12.90;99.90
2024;DHT22;1016;48.770;9.154;2023-04-07T10:00:21;12.90;99.90
2024;DHT22;1016;48.770;9.154;2023-04-07T10:02:47;12.80;99.90
2024;DHT22;1016;48.770;9.154;2023-04-07T10:05:13;12.70;99.90
2024;DHT22;1016;48.770;9.154;2023-04-07T10:07:39;12.70;99.90
2024;DHT22;1016;48.770;9.154;2023-04-07T10:10:06;12.70;99.90
2024;DHT22;1016;48.770;9.154;2023-04-07T10:12:33;12.60;99.90
2024;DHT22;1016;48.770;9.154;2023-04-07T10:14:59;12.60;99.90
2024;DHT22;1016;48.770;9.154;2023-04-07T10:17:27;12.50;99.90
2024;DHT22;1016;48.770;9.154;2023-04-07T10:19:53;12.50;99.90
2024;DHT22;1016;48.770;9.154;2023-04-07T10:22:20;12.50;99.90
2024;DHT22;1016;48.770;9.154;2023-04-07T10:25:02;12.50;99.90
2024;DHT22;1016;48.770;9.154;2023-04-07T10:27:36;12.50;99.90
2024;DHT22;1016;48.770;9.154;2023-04-07T10:30:05;12.50;99.90
2024;DHT22;1016;48.770;9.154;2023-04-07T10:32:47;12.50;99.90
2024;DHT22;1016;48.770;9.154;2023-04-07T10:35:13;12.50;99.90
2024;DHT22;1016;48.770;9.154;2023-04-07T10:37:38;12.40;99.90
2024;DHT22;1016;48.770;9.154;2023-04-07T10:42:46;12.50;99.90
2024;DHT22;1016;48.770;9.154;2023-04-07T10:45:12;12.50;99.90
2024;DHT22;1016;48.770;9.154;2023-04-07T10:50:23;12.60;99.90
2024;DHT22;1016;48.770;9.154;2023-04-07T10:53:07;12.60;99.90
2024;DHT22;1016;48.770;9.154;2023-04-07T10:58:26;12.70;99.90
2024;DHT22;1016;48.770;9.154;2023-04-07T11:03:37;12.60;99.90
2024;DHT22;1016;48.770;9.154;2023-04-07T11:06:13;12.70;99.90
2024;DHT22;1016;48.770;9.154;2023-04-07T11:08:40;12.80;99.90
2024;DHT22;1016;48.770;9.154;2023-04-07T11:11:07;12.80;99.90
2024;DHT22;1016;48.770;9.154;2023-04-07T11:13:44;12.90;99.90
2024;DHT22;1016;48.770;9.154;2023-04-07T11:16:11;13.00;99.90
2024;DHT22;1016;48.770;9.154;2023-04-07T11:18:37;13.00;99.90
2024;DHT22;1016;48.770;9.154;2023-04-07T11:21:03;12.90;99.90
2024;DHT22;1016;48.770;9.154;2023-04-07T11:23:39;12.90;99.90
2024;DHT22;1016;48.770;9.154;2023-04-07T11:26:06;12.90;99.90
2024;DHT22;1016;48.770;9.154;2023-04-07T11:28:32;12.90;99.90
2024;DHT22;1016;48.770;9.154;2023-04-07T11:30:58;12.80;99.90
2024;DHT22;1016;48.770;9.154;2023-04-07T11:33:27;12.80;99.90
2024;DHT22;1016;48.770;9.154;2023-04-07T11:35:59;12.80;99.90
2024;DHT22;1016;48.770;9.154;2023-04-07T11:38:33;12.80;99.90
2024;DHT22;1016;48.770;9.154;2023-04-07T11:41:09;12.70;99.90
2024;DHT22;1016;48.770;9.154;2023-04-07T11:43:35;12.70;99.90
2024;DHT22;1016;48.770;9.154;2023-04-07T11:46:08;12.70;99.90
2024;DHT22;1016;48.770;9.154;2023-04-07T11:48:35;12.60;99.90
2024;DHT22;1016;48.770;9.154;2023-04-07T11:51:02;12.60;99.90
2024;DHT22;1016;48.770;9.154;2023-04-07T11:53:35;12.70;99.90
2024;DHT22;1016;48.770;9.154;2023-04-07T11:56:12;12.60;99.90
2024;DHT22;1016;48.770;9.154;2023-04-07T11:58:48;12.50;99.90
2024;DHT22;1016;48.770;9.154;2023-04-07T12:01:14;12.50;99.90
2024;DHT22;1016;48.770;9.154;2023-04-07T12:06:30;12.30;99.90
2024;DHT22;1016;48.770;9.154;2023-04-07T12:08:59;12.10;99.90
2024;DHT22;1016;48.770;9.154;2023-04-07T12:11:25;12.10;99.90
2024;DHT22;1016;48.770;9.154;2023-04-07T12:13:51;12.00;99.90
2024;DHT22;1016;48.770;9.154;2023-04-07T12:16:17;11.80;99.90
2024;DHT22;1016;48.770;9.154;2023-04-07T12:18:43;11.60;99.90
2024;DHT22;1016;48.770;9.154;2023-04-07T12:21:09;11.60;99.90
2024;DHT22;1016;48.770;9.154;2023-04-07T12:23:34;11.40;99.90
2024;DHT22;1016;48.770;9.154;2023-04-07T12:26:00;11.30;99.90
2024;DHT22;1016;48.770;9.154;2023-04-07T12:28:26;11.20;99.90
2024;DHT22;1016;48.770;9.154;2023-04-07T12:30:52;11.10;99.90
2024;DHT22;1016;48.770;9.154;2023-04-07T12:33:18;11.10;99.90
2024;DHT22;1016;48.770;9.154;2023-04-07T12:35:43;11.00;99.90
2024;DHT22;1016;48.770;9.154;2023-04-07T12:38:09;11.00;99.90
2024;DHT22;1016;48.770;9.154;2023-04-07T12:40:35;11.00;99.90
2024;DHT22;1016;48.770;9.154;2023-04-07T12:43:02;11.00;99.90
2024;DHT22;1016;48.770;9.154;2023-04-07T12:45:27;11.00;99.90
2024;DHT22;1016;48.770;9.154;2023-04-07T12:47:55;11.00;99.90
2024;DHT22;1016;48.770;9.154;2023-04-07T12:50:21;11.10;99.90
2024;DHT22;1016;48.770;9.154;2023-04-07T12:52:47;11.10;99.90
2024;DHT22;1016;48.770;9.154;2023-04-07T12:55:13;11.10;99.90
2024;DHT22;1016;48.770;9.154;2023-04-07T12:57:38;11.10;99.90
2024;DHT22;1016;48.770;9.154;2023-04-07T13:00:05;11.10;99.90
2024;DHT22;1016;48.770;9.154;2023-04-07T13:02:30;11.10;99.90
2024;DHT22;1016;48.770;9.154;2023-04-07T13:04:56;11.20;99.90
2024;DHT22;1016;48.770;9.154;2023-04-07T13:07:21;11.20;99.90
2024;DHT22;1016;48.770;9.154;2023-04-07T13:09:47;11.30;99.90
2024;DHT22;1016;48.770;9.154;2023-04-07T13:12:12;11.40;99.90
2024;DHT22;1016;48.770;9.154;2023-04-07T13:14:39;11.40;99.90
2024;DHT22;1016;48.770;9.154;2023-04-07T13:17:05;11.40;99.90
2024;DHT22;1016;48.770;9.154;2023-04-07T13:19:31;11.40;99.90
2024;DHT22;1016;48.770;9.154;2023-04-07T13:21:57;11.40;99.90
2024;DHT22;1016;48.770;9.154;2023-04-07T13:24:23;11.40;99.90
2024;DHT22;1016;48.770;9.154;2023-04-07T13:26:49;11.40;99.90
2024;DHT22;1016;48.770;9.154;2023-04-07T13:29:16;11.40;99.90
2024;DHT22;1016;48.770;9.154;2023-04-07T13:31:44;11.50;99.90
2024;DHT22;1016;48.770;9.154;2023-04-07T13:34:09;11.50;99.90
2024;DHT22;1016;48.770;9.154;2023-04-07T13:36:35;11.40;99.90
2024;DHT22;1016;48.770;9.154;2023-04-07T13:39:01;11.40;99.90
2024;DHT22;1016;48.770;9.154;2023-04-07T13:41:26;11.40;99.90
2024;DHT22;1016;48.770;9.154;2023-04-07T13:43:52;11.40;99.90
2024;DHT22;1016;48.770;9.154;2023-04-07T13:46:17;11.40;99.90
2024;DHT22;1016;48.770;9.154;2023-04-07T13:48:44;11.40;99.90
2024;DHT22;1016;48.770;9.154;2023-04-07T13:51:10;11.40;99.90
2024;DHT22;1016;48.770;9.154;2023-04-07T13:53:35;11.40;99.90
2024;DHT22;1016;48.770;9.154;2023-04-07T13:56:01;11.50;99.90
2024;DHT22;1016;48.770;9.154;2023-04-07T13:58:28;11.50;99.90
2024;DHT22;1016;48.770;9.154;2023-04-07T14:00:54;11.50;99.90
2024;DHT22;1016;48.770;9.154;2023-04-07T14:03:20;11.50;99.90
2024;DHT22;1016;48.770;9.154;2023-04-07T14:05:47;11.50;99.90
2024;DHT22;1016;48.770;9.154;2023-04-07T14:08:12;11.50;99.90
2024;DHT22;1016;48.770;9.154;2023-04-07T14:10:38;11.50;99.90
2024;DHT22;1016;48.770;9.154;2023-04-07T14:13:05;11.60;99.90
2024;DHT22;1016;48.770;9.154;2023-04-07T14:15:31;11.60;99.90
2024;DHT22;1016;48.770;9.154;2023-04-07T14:17:56;11.60;99.90
2024;DHT22;1016;48.770;9.154;2023-04-07T14:20:22;11.70;99.90
2024;DHT22;1016;48.770;9.154;2023-04-07T14:22:48;11.70;99.90
2024;DHT22;1016;48.770;9.154;2023-04-07T14:25:13;11.70;99.90
2024;DHT22;1016;48.770;9.154;2023-04-07T14:27:38;11.80;99.90
2024;DHT22;1016;48.770;9.154;2023-04-07T14:30:05;11.70;99.90
2024;DHT22;1016;48.770;9.154;2023-04-07T14:32:31;11.70;99.90
2024;DHT22;1016;48.770;9.154;2023-04-07T14:34:58;11.70;99.90
2024;DHT22;1016;48.770;9.154;2023-04-07T14:37:23;11.80;99.90
2024;DHT22;1016;48.770;9.154;2023-04-07T14:39:51;11.90;99.90
2024;DHT22;1016;48.770;9.154;2023-04-07T14:42:17;11.90;99.90
2024;DHT22;1016;48.770;9.154;2023-04-07T14:44:43;11.90;99.90
2024;DHT22;1016;48.770;9.154;2023-04-07T14:47:08;11.90;99.90
2024;DHT22;1016;48.770;9.154;2023-04-07T14:49:34;11.90;99.90
2024;DHT22;1016;48.770;9.154;2023-04-07T14:51:59;12.00;99.90
2024;DHT22;1016;48.770;9.154;2023-04-07T14:54:25;12.00;99.90
2024;DHT22;1016;48.770;9.154;2023-04-07T14:56:51;12.00;99.90
2024;DHT22;1016;48.770;9.154;2023-04-07T14:59:16;12.00;99.90
2024;DHT22;1016;48.770;9.154;2023-04-07T15:01:42;12.00;99.90
2024;DHT22;1016;48.770;9.154;2023-04-07T15:04:07;12.00;99.90
2024;DHT22;1016;48.770;9.154;2023-04-07T15:06:33;12.00;99.90
2024;DHT22;1016;48.770;9.154;2023-04-07T15:08:58;12.00;99.90
2024;DHT22;1016;48.770;9.154;2023-04-07T15:11:24;12.10;99.90
2024;DHT22;1016;48.770;9.154;2023-04-07T15:13:50;12.00;99.90
2024;DHT22;1016;48.770;9.154;2023-04-07T15:16:16;12.10;99.90
2024;DHT22;1016;48.770;9.154;2023-04-07T15:18:43;12.10;99.90
2024;DHT22;1016;48.770;9.154;2023-04-07T15:21:10;12.20;99.90
2024;DHT22;1016;48.770;9.154;2023-04-07T15:23:37;12.30;99.90
2024;DHT22;1016;48.770;9.154;2023-04-07T15:26:05;12.30;99.90
2024;DHT22;1016;48.770;9.154;2023-04-07T15:28:31;12.30;99.90
2024;DHT22;1016;48.770;9.154;2023-04-07T15:30:58;12.40;99.90
2024;DHT22;1016;48.770;9.154;2023-04-07T15:33:24;12.40;99.90
2024;DHT22;1016;48.770;9.154;2023-04-07T15:35:50;12.50;99.90
2024;DHT22;1016;48.770;9.154;2023-04-07T15:38:15;12.50;99.90
2024;DHT22;1016;48.770;9.154;2023-04-07T15:40:41;12.50;99.90
2024;DHT22;1016;48.770;9.154;2023-04-07T15:43:06;12.60;99.90
2024;DHT22;1016;48.770;9.154;2023-04-07T15:45:38;12.60;99.90
2024;DHT22;1016;48.770;9.154;2023-04-07T15:48:04;12.70;99.90
2024;DHT22;1016;48.770;9.154;2023-04-07T15:50:29;12.80;99.90
2024;DHT22;1016;48.770;9.154;2023-04-07T15:52:56;12.90;99.90
2024;DHT22;1016;48.770;9.154;2023-04-07T15:55:21;13.00;99.90
2024;DHT22;1016;48.770;9.154;2023-04-07T15:57:47;13.10;99.90
2024;DHT22;1016;48.770;9.154;2023-04-07T16:00:12;13.10;99.90
2024;DHT22;1016;48.770;9.154;2023-04-07T16:02:38;13.00;99.90
2024;DHT22;1016;48.770;9.154;2023-04-07T16:05:04;13.00;99.90
2024;DHT22;1016;48.770;9.154;2023-04-07T16:07:30;13.00;99.90
2024;DHT22;1016;48.770;9.154;2023-04-07T16:09:55;13.00;99.90
2024;DHT22;1016;48.770;9.154;2023-04-07T16:12:21;13.00;99.90
2024;DHT22;1016;48.770;9.154;2023-04-07T16:14:46;13.00;99.90
2024;DHT22;1016;48.770;9.154;2023-04-07T16:17:12;13.00;99.90
2024;DHT22;1016;48.770;9.154;2023-04-07T16:19:37;13.00;99.90
2024;DHT22;1016;48.770;9.154;2023-04-07T16:22:03;13.00;99.90
2024;DHT22;1016;48.770;9.154;2023-04-07T16:24:28;13.10;99.90
2024;DHT22;1016;48.770;9.154;2023-04-07T16:26:54;13.10;99.90
2024;DHT22;1016;48.770;9.154;2023-04-07T16:29:20;13.10;99.90